Wetterdaten: Woche 17.10.11 - 23.10.11 (KW42)
Datum Zeit Temp. A. Feuchte A. Luftdruck Regen Wind Richtung Taupunkt Windchill Windben
17.10.2011 00:00 0,6 C 82 % 1029,1 hPa 0,0 l/m 0,0 km/h N -2,0 C 0,6 C 0,0 km/h
17.10.2011 01:00 0,3 C 83 % 1028,8 hPa 0,0 l/m 0,0 km/h N -2,3 C 0,3 C 0,0 km/h
17.10.2011 02:00 -0,1 C 84 % 1028,4 hPa 0,0 l/m 0,0 km/h N -2,5 C -0,1 C 0,0 km/h
17.10.2011 03:00 -0,4 C 84 % 1027,9 hPa 0,0 l/m 0,0 km/h N -2,7 C -0,4 C 0,0 km/h
17.10.2011 04:00 -0,6 C 84 % 1027,6 hPa 0,0 l/m 0,0 km/h N -3,0 C -0,6 C 0,0 km/h
17.10.2011 05:00 -0,9 C 84 % 1027,6 hPa 0,0 l/m 0,0 km/h N -3,3 C -0,9 C 0,4 km/h
17.10.2011 06:00 -1,1 C 84 % 1027,5 hPa 0,0 l/m 0,0 km/h N -3,4 C -1,1 C 0,0 km/h
17.10.2011 07:00 -1,1 C 84 % 1027,6 hPa 0,0 l/m 0,0 km/h N -3,4 C -1,1 C 0,0 km/h
17.10.2011 08:00 -0,7 C 84 % 1028,0 hPa 0,0 l/m 0,0 km/h N -3,1 C -0,7 C 0,4 km/h
17.10.2011 09:00 1,1 C 83 % 1028,1 hPa 0,0 l/m 0,1 km/h N -1,4 C 1,1 C 1,2 km/h
17.10.2011 10:00 2,8 C 84 % 1028,0 hPa 0,0 l/m 0,1 km/h N 0,3 C 2,8 C 2,0 km/h
17.10.2011 11:00 4,7 C 80 % 1027,7 hPa 0,0 l/m 0,3 km/h N 1,5 C 4,7 C 3,6 km/h
17.10.2011 12:00 7,1 C 72 % 1027,2 hPa 0,0 l/m 0,4 km/h N 2,3 C 7,1 C 4,8 km/h
17.10.2011 13:00 9,0 C 63 % 1026,3 hPa 0,0 l/m 0,6 km/h N 2,4 C 9,0 C 4,4 km/h
17.10.2011 14:00 10,4 C 56 % 1025,6 hPa 0,0 l/m 0,5 km/h N 2,0 C 10,4 C 4,0 km/h
17.10.2011 15:00 11,2 C 52 % 1025,0 hPa 0,0 l/m 0,7 km/h O 1,7 C 11,2 C 5,6 km/h
17.10.2011 16:00 11,4 C 50 % 1024,7 hPa 0,0 l/m 0,4 km/h N 1,3 C 11,4 C 2,8 km/h
17.10.2011 17:00 10,9 C 52 % 1024,3 hPa 0,0 l/m 0,1 km/h N 1,4 C 10,9 C 2,0 km/h
17.10.2011 18:00 9,1 C 60 % 1024,4 hPa 0,0 l/m 0,0 km/h N 1,7 C 9,1 C 0,0 km/h
17.10.2011 19:00 6,5 C 69 % 1024,6 hPa 0,0 l/m 0,0 km/h N 1,1 C 6,5 C 0,0 km/h
17.10.2011 20:00 4,5 C 75 % 1024,4 hPa 0,0 l/m 0,0 km/h N 0,4 C 4,5 C 0,0 km/h
17.10.2011 21:00 3,1 C 78 % 1024,2 hPa 0,0 l/m 0,0 km/h N -0,3 C 3,1 C 0,0 km/h
17.10.2011 22:00 2,3 C 81 % 1024,0 hPa 0,0 l/m 0,0 km/h N -0,8 C 2,3 C 0,8 km/h
17.10.2011 23:00 1,6 C 82 % 1023,7 hPa 0,0 l/m 0,0 km/h N -1,2 C 1,6 C 0,0 km/h
18.10.2011 00:00 1,1 C 83 % 1023,4 hPa 0,0 l/m 0,0 km/h N -1,5 C 1,1 C 0,4 km/h
18.10.2011 01:00 0,8 C 84 % 1023,2 hPa 0,0 l/m 0,0 km/h N -1,6 C 0,8 C 0,8 km/h
18.10.2011 02:00 0,8 C 84 % 1023,0 hPa 0,0 l/m 0,0 km/h N -1,6 C 0,8 C 0,0 km/h
18.10.2011 03:00 0,7 C 84 % 1022,5 hPa 0,0 l/m 0,0 km/h N -1,7 C 0,7 C 0,0 km/h
18.10.2011 04:00 0,6 C 84 % 1022,2 hPa 0,0 l/m 0,0 km/h N -1,8 C 0,6 C 0,0 km/h
18.10.2011 05:00 0,4 C 84 % 1022,2 hPa 0,0 l/m 0,0 km/h N -1,9 C 0,4 C 0,4 km/h
18.10.2011 06:00 0,0 C 84 % 1022,2 hPa 0,0 l/m 0,0 km/h N -2,4 C 0,0 C 0,0 km/h
18.10.2011 07:00 -0,2 C 84 % 1022,0 hPa 0,0 l/m 0,0 km/h N -2,6 C -0,2 C 0,8 km/h
18.10.2011 08:00 0,3 C 83 % 1022,2 hPa 0,0 l/m 0,0 km/h N -2,3 C 0,3 C 0,4 km/h
18.10.2011 09:00 2,2 C 81 % 1022,0 hPa 0,8 l/m 0,0 km/h N -0,7 C 2,2 C 0,4 km/h
18.10.2011 10:00 4,7 C 80 % 1021,5 hPa 0,0 l/m 0,1 km/h S 1,6 C 4,7 C 1,6 km/h
18.10.2011 11:00 8,5 C 79 % 1020,7 hPa 0,0 l/m 1,6 km/h S-SO 5,1 C 8,5 C 9,3 km/h
18.10.2011 12:00 11,4 C 68 % 1020,2 hPa 0,0 l/m 1,0 km/h N 5,8 C 11,4 C 8,8 km/h
18.10.2011 13:00 12,4 C 64 % 1019,2 hPa 0,0 l/m 0,5 km/h N 5,8 C 12,4 C 4,8 km/h
18.10.2011 14:00 12,7 C 61 % 1018,4 hPa 0,0 l/m 0,3 km/h N 5,4 C 12,7 C 3,6 km/h
18.10.2011 15:00 13,3 C 61 % 1017,8 hPa 0,0 l/m 0,6 km/h N 5,8 C 13,3 C 7,7 km/h
18.10.2011 16:00 13,3 C 59 % 1017,4 hPa 0,0 l/m 0,1 km/h N 5,4 C 13,3 C 2,8 km/h
18.10.2011 17:00 12,7 C 60 % 1017,2 hPa 0,0 l/m 0,0 km/h N 5,0 C 12,7 C 1,2 km/h
18.10.2011 18:00 10,5 C 67 % 1017,1 hPa 0,0 l/m 0,0 km/h N 4,6 C 10,5 C 0,0 km/h
18.10.2011 19:00 7,6 C 75 % 1017,2 hPa 0,0 l/m 0,0 km/h N 3,5 C 7,6 C 0,0 km/h
18.10.2011 20:00 5,8 C 79 % 1016,7 hPa 0,0 l/m 0,0 km/h N 2,5 C 5,8 C 0,0 km/h
18.10.2011 21:00 4,7 C 81 % 1016,4 hPa 0,0 l/m 0,0 km/h N 1,7 C 4,7 C 0,0 km/h
18.10.2011 22:00 4,0 C 82 % 1016,1 hPa 0,0 l/m 0,0 km/h N 1,2 C 4,0 C 0,0 km/h
18.10.2011 23:00 3,3 C 83 % 1015,6 hPa 0,0 l/m 0,0 km/h N 0,7 C 3,3 C 0,0 km/h
19.10.2011 00:00 2,7 C 84 % 1015,4 hPa 0,0 l/m 0,0 km/h N 0,1 C 2,7 C 0,0 km/h
19.10.2011 01:00 2,2 C 84 % 1015,4 hPa 0,0 l/m 0,0 km/h N -0,3 C 2,2 C 0,4 km/h
19.10.2011 02:00 1,7 C 84 % 1015,2 hPa 0,0 l/m 0,0 km/h N -0,7 C 1,7 C 0,0 km/h
19.10.2011 03:00 1,3 C 84 % 1014,8 hPa 0,0 l/m 0,0 km/h N -1,1 C 1,3 C 0,0 km/h
19.10.2011 04:00 0,9 C 84 % 1014,8 hPa 0,0 l/m 0,0 km/h N -1,5 C 0,9 C 0,0 km/h
19.10.2011 05:00 0,8 C 84 % 1015,0 hPa 0,0 l/m 0,0 km/h N -1,6 C 0,8 C 0,0 km/h
19.10.2011 06:00 0,6 C 84 % 1015,0 hPa 0,0 l/m 0,0 km/h N -1,8 C 0,6 C 0,0 km/h
19.10.2011 07:00 0,3 C 84 % 1015,2 hPa 0,0 l/m 0,0 km/h N -2,1 C 0,3 C 0,0 km/h
19.10.2011 08:00 0,3 C 84 % 1015,6 hPa 0,0 l/m 0,0 km/h N -2,2 C 0,3 C 0,0 km/h
19.10.2011 09:00 2,2 C 82 % 1016,2 hPa 0,0 l/m 0,1 km/h N -0,7 C 2,2 C 2,0 km/h
19.10.2011 10:00 4,3 C 82 % 1016,3 hPa 0,0 l/m 0,4 km/h N 1,5 C 4,3 C 4,0 km/h
19.10.2011 11:00 6,0 C 83 % 1015,8 hPa 0,0 l/m 0,1 km/h N 3,4 C 6,0 C 2,8 km/h
19.10.2011 12:00 8,0 C 79 % 1015,3 hPa 0,0 l/m 0,2 km/h N 4,5 C 8,0 C 3,6 km/h
19.10.2011 13:00 10,0 C 72 % 1014,7 hPa 0,0 l/m 0,5 km/h S 5,1 C 10,0 C 4,4 km/h
19.10.2011 14:00 11,5 C 67 % 1014,2 hPa 0,0 l/m 0,8 km/h S-SW 5,6 C 11,5 C 6,4 km/h
19.10.2011 15:00 12,4 C 68 % 1013,4 hPa 0,0 l/m 0,1 km/h N 6,7 C 12,4 C 2,4 km/h
19.10.2011 16:00 13,1 C 68 % 1013,0 hPa 0,0 l/m 0,0 km/h N 7,3 C 13,1 C 0,8 km/h
19.10.2011 17:00 12,5 C 71 % 1013,3 hPa 0,0 l/m 0,0 km/h N 7,3 C 12,5 C 1,2 km/h
19.10.2011 18:00 11,5 C 73 % 1014,0 hPa 0,0 l/m 0,0 km/h N 6,8 C 11,5 C 0,0 km/h
19.10.2011 19:00 10,5 C 75 % 1014,8 hPa 0,0 l/m 0,0 km/h N 6,3 C 10,5 C 1,2 km/h
19.10.2011 20:00 10,2 C 77 % 1015,5 hPa 0,0 l/m 0,7 km/h NW 6,4 C 10,2 C 6,0 km/h
19.10.2011 21:00 10,5 C 75 % 1016,2 hPa 0,0 l/m 2,3 km/h NW 6,2 C 10,5 C 8,0 km/h
19.10.2011 22:00 10,5 C 78 % 1017,2 hPa 0,0 l/m 6,1 km/h NW 6,8 C 10,2 C 19,3 km/h
19.10.2011 23:00 8,9 C 80 % 1018,6 hPa 0,0 l/m 5,7 km/h NW 5,7 C 8,9 C 22,1 km/h
20.10.2011 00:00 8,2 C 83 % 1019,2 hPa 0,3 l/m 3,2 km/h NW 5,4 C 8,2 C 12,5 km/h
20.10.2011 01:00 7,6 C 83 % 1019,5 hPa 0,3 l/m 4,0 km/h NW 4,9 C 7,6 C 15,7 km/h
20.10.2011 02:00 7,2 C 83 % 1019,9 hPa 0,3 l/m 2,9 km/h N-NW 4,5 C 7,2 C 11,3 km/h
20.10.2011 03:00 7,1 C 83 % 1019,9 hPa 0,3 l/m 2,4 km/h NW 4,4 C 7,1 C 11,3 km/h
20.10.2011 04:00 6,9 C 83 % 1020,2 hPa 0,0 l/m 2,5 km/h S 4,2 C 6,9 C 14,5 km/h
20.10.2011 05:00 6,5 C 82 % 1020,8 hPa 0,0 l/m 1,8 km/h SW 3,7 C 6,5 C 12,9 km/h
20.10.2011 06:00 6,2 C 83 % 1021,2 hPa 0,3 l/m 1,1 km/h NW 3,5 C 6,2 C 6,8 km/h
20.10.2011 07:00 6,1 C 83 % 1021,7 hPa 0,0 l/m 3,4 km/h NW 3,4 C 6,1 C 12,9 km/h
20.10.2011 08:00 6,4 C 82 % 1022,3 hPa 0,0 l/m 3,2 km/h W-NW 3,5 C 6,4 C 16,1 km/h
20.10.2011 09:00 6,8 C 80 % 1022,8 hPa 0,0 l/m 3,7 km/h NW 3,6 C 6,8 C 14,5 km/h
20.10.2011 10:00 7,3 C 79 % 1023,0 hPa 0,0 l/m 4,4 km/h NW 3,9 C 7,3 C 19,3 km/h
20.10.2011 11:00 7,5 C 77 % 1023,8 hPa 0,0 l/m 3,4 km/h NW 3,7 C 7,5 C 16,1 km/h
20.10.2011 12:00 7,8 C 76 % 1024,3 hPa 0,0 l/m 4,1 km/h NW 3,9 C 7,8 C 14,1 km/h
20.10.2011 13:00 8,4 C 74 % 1023,8 hPa 0,0 l/m 4,1 km/h N-NW 4,1 C 8,4 C 17,7 km/h
20.10.2011 14:00 8,7 C 72 % 1023,5 hPa 0,0 l/m 3,2 km/h NW 3,9 C 8,7 C 13,7 km/h
20.10.2011 15:00 8,1 C 74 % 1023,8 hPa 0,0 l/m 2,3 km/h SW 3,7 C 8,1 C 14,5 km/h
20.10.2011 16:00 8,0 C 74 % 1024,1 hPa 0,0 l/m 1,8 km/h SW 3,6 C 8,0 C 12,5 km/h
20.10.2011 17:00 8,0 C 73 % 1024,4 hPa 0,0 l/m 1,2 km/h W-NW 3,5 C 8,0 C 8,4 km/h
20.10.2011 18:00 7,6 C 74 % 1024,6 hPa 0,0 l/m 1,3 km/h S-SW 3,3 C 7,6 C 12,1 km/h
20.10.2011 19:00 7,4 C 75 % 1024,9 hPa 0,0 l/m 1,5 km/h SW 3,2 C 7,4 C 14,1 km/h
20.10.2011 20:00 7,3 C 75 % 1025,1 hPa 0,0 l/m 2,3 km/h N-NW 3,1 C 7,3 C 9,6 km/h
20.10.2011 21:00 7,2 C 76 % 1025,4 hPa 0,0 l/m 2,0 km/h N-NW 3,3 C 7,2 C 10,9 km/h
20.10.2011 22:00 6,9 C 76 % 1026,2 hPa 0,0 l/m 2,2 km/h NW 2,9 C 6,9 C 11,3 km/h
20.10.2011 23:00 6,7 C 75 % 1026,6 hPa 0,0 l/m 1,7 km/h NW 2,7 C 6,7 C 9,6 km/h
21.10.2011 00:00 6,6 C 77 % 1026,7 hPa 0,0 l/m 2,5 km/h NW 2,8 C 6,6 C 8,8 km/h
21.10.2011 01:00 6,3 C 77 % 1026,8 hPa 0,0 l/m 1,9 km/h NW 2,6 C 6,3 C 8,9 km/h
21.10.2011 02:00 6,2 C 77 % 1027,1 hPa 0,0 l/m 1,7 km/h NW 2,5 C 6,2 C 7,6 km/h
21.10.2011 03:00 5,9 C 77 % 1027,2 hPa 0,0 l/m 2,3 km/h N-NW 2,2 C 5,9 C 8,4 km/h
21.10.2011 04:00 5,9 C 78 % 1027,3 hPa 0,0 l/m 1,8 km/h N-NW 2,3 C 5,9 C 7,2 km/h
21.10.2011 05:00 5,9 C 78 % 1027,6 hPa 0,0 l/m 2,2 km/h NW 2,4 C 5,9 C 7,6 km/h
21.10.2011 06:00 5,8 C 78 % 1027,9 hPa 0,0 l/m 1,4 km/h N-NW 2,3 C 5,8 C 7,6 km/h
21.10.2011 07:00 5,3 C 79 % 1028,0 hPa 0,0 l/m 1,3 km/h N-NW 2,0 C 5,3 C 6,4 km/h
21.10.2011 08:00 5,2 C 81 % 1028,5 hPa 0,0 l/m 1,4 km/h NW 2,1 C 5,2 C 7,2 km/h
21.10.2011 09:00 5,5 C 80 % 1029,0 hPa 0,0 l/m 1,3 km/h N-NW 2,3 C 5,5 C 7,2 km/h
21.10.2011 10:00 6,2 C 78 % 1029,2 hPa 0,0 l/m 2,3 km/h N-NW 2,6 C 6,2 C 8,0 km/h
21.10.2011 11:00 7,3 C 72 % 1029,2 hPa 0,0 l/m 2,7 km/h N 2,6 C 7,3 C 8,9 km/h
21.10.2011 12:00 8,5 C 65 % 1028,9 hPa 0,0 l/m 2,8 km/h N-NW 2,4 C 8,5 C 8,9 km/h
21.10.2011 13:00 9,1 C 62 % 1028,5 hPa 0,0 l/m 3,0 km/h N-NO 2,1 C 9,1 C 9,3 km/h
21.10.2011 14:00 9,7 C 59 % 1028,2 hPa 0,0 l/m 3,8 km/h NW 2,0 C 9,7 C 12,1 km/h
21.10.2011 15:00 9,7 C 57 % 1027,9 hPa 0,0 l/m 3,2 km/h N-NW 1,5 C 9,7 C 10,9 km/h
21.10.2011 16:00 9,1 C 59 % 1027,9 hPa 0,0 l/m 3,2 km/h N-NW 1,5 C 9,1 C 8,4 km/h
21.10.2011 17:00 8,7 C 60 % 1027,9 hPa 0,0 l/m 2,5 km/h N-NW 1,4 C 8,7 C 6,8 km/h
21.10.2011 18:00 7,2 C 66 % 1028,3 hPa 0,0 l/m 0,1 km/h N 1,1 C 7,2 C 1,6 km/h
21.10.2011 19:00 5,4 C 70 % 1028,8 hPa 0,0 l/m 0,0 km/h N 0,4 C 5,4 C 0,4 km/h
21.10.2011 20:00 4,0 C 76 % 1029,1 hPa 0,0 l/m 0,0 km/h N 0,1 C 4,0 C 1,6 km/h
21.10.2011 21:00 3,1 C 78 % 1029,4 hPa 0,0 l/m 0,0 km/h N -0,4 C 3,1 C 0,8 km/h
21.10.2011 22:00 2,8 C 79 % 1029,5 hPa 0,0 l/m 0,0 km/h N -0,5 C 2,8 C 0,4 km/h
21.10.2011 23:00 3,1 C 81 % 1029,4 hPa 0,0 l/m 0,1 km/h N 0,1 C 3,1 C 2,8 km/h
22.10.2011 00:00 3,0 C 80 % 1029,3 hPa 0,0 l/m 0,0 km/h N -0,1 C 3,0 C 1,6 km/h
22.10.2011 01:00 2,3 C 81 % 1029,2 hPa 0,0 l/m 0,0 km/h N -0,7 C 2,3 C 2,0 km/h
22.10.2011 02:00 1,7 C 82 % 1028,8 hPa 0,0 l/m 0,0 km/h N -1,2 C 1,7 C 1,2 km/h
22.10.2011 03:00 1,2 C 83 % 1028,4 hPa 0,0 l/m 0,0 km/h N -1,4 C 1,2 C 2,4 km/h
22.10.2011 04:00 0,9 C 84 % 1028,3 hPa 0,0 l/m 0,0 km/h N -1,5 C 0,9 C 0,4 km/h
22.10.2011 05:00 0,5 C 84 % 1028,3 hPa 0,0 l/m 0,0 km/h N -1,9 C 0,5 C 0,4 km/h
22.10.2011 06:00 0,0 C 84 % 1028,5 hPa 0,0 l/m 0,0 km/h N -2,4 C 0,0 C 0,8 km/h
22.10.2011 07:00 -0,5 C 84 % 1028,7 hPa 0,0 l/m 0,0 km/h N -2,9 C -0,5 C 0,4 km/h
22.10.2011 08:00 -0,6 C 84 % 1029,0 hPa 0,0 l/m 0,0 km/h N -3,0 C -0,6 C 0,0 km/h
22.10.2011 09:00 -0,3 C 84 % 1029,2 hPa 0,0 l/m 0,0 km/h N -2,7 C -0,3 C 0,4 km/h
22.10.2011 10:00 1,0 C 83 % 1029,0 hPa 0,0 l/m 0,0 km/h N -1,5 C 1,0 C 1,2 km/h
22.10.2011 11:00 3,3 C 83 % 1028,7 hPa 0,0 l/m 0,2 km/h N 0,7 C 3,3 C 4,0 km/h
22.10.2011 12:00 5,3 C 81 % 1028,1 hPa 0,0 l/m 0,2 km/h N 2,3 C 5,3 C 2,8 km/h
22.10.2011 13:00 6,6 C 75 % 1027,3 hPa 0,0 l/m 0,2 km/h N 2,4 C 6,6 C 2,4 km/h
22.10.2011 14:00 7,7 C 71 % 1026,7 hPa 0,0 l/m 0,3 km/h N 2,8 C 7,7 C 3,2 km/h
22.10.2011 15:00 8,6 C 67 % 1026,0 hPa 0,0 l/m 0,5 km/h N 2,9 C 8,6 C 3,6 km/h
22.10.2011 16:00 9,1 C 63 % 1025,6 hPa 0,0 l/m 0,4 km/h N 2,3 C 9,1 C 3,2 km/h
22.10.2011 17:00 8,9 C 62 % 1025,8 hPa 0,0 l/m 0,1 km/h N 2,0 C 8,9 C 1,6 km/h
22.10.2011 18:00 6,8 C 68 % 1026,0 hPa 0,0 l/m 0,0 km/h N 1,4 C 6,8 C 0,0 km/h
22.10.2011 19:00 4,4 C 75 % 1026,4 hPa 0,0 l/m 0,0 km/h N 0,4 C 4,4 C 0,4 km/h
22.10.2011 20:00 3,0 C 79 % 1026,4 hPa 0,0 l/m 0,0 km/h N -0,2 C 3,0 C 0,0 km/h
22.10.2011 21:00 2,3 C 81 % 1026,3 hPa 0,0 l/m 0,0 km/h N -0,6 C 2,3 C 0,4 km/h
22.10.2011 22:00 2,0 C 83 % 1026,1 hPa 0,0 l/m 0,0 km/h N -0,6 C 2,0 C 0,0 km/h
22.10.2011 23:00 1,6 C 83 % 1025,8 hPa 0,0 l/m 0,0 km/h N -0,9 C 1,6 C 0,0 km/h
23.10.2011 00:00 1,0 C 84 % 1025,5 hPa 0,0 l/m 0,0 km/h N -1,5 C 1,0 C 0,0 km/h
23.10.2011 01:00 0,4 C 84 % 1025,2 hPa 0,0 l/m 0,0 km/h N -2,0 C 0,4 C 0,0 km/h
23.10.2011 02:00 0,2 C 84 % 1024,9 hPa 0,0 l/m 0,0 km/h N -2,2 C 0,2 C 0,0 km/h
23.10.2011 03:00 0,7 C 84 % 1024,6 hPa 0,0 l/m 0,0 km/h N -1,8 C 0,7 C 0,0 km/h
23.10.2011 04:00 1,5 C 83 % 1024,4 hPa 0,0 l/m 0,0 km/h N -1,1 C 1,5 C 0,0 km/h
23.10.2011 05:00 2,4 C 82 % 1024,6 hPa 0,0 l/m 0,0 km/h N -0,4 C 2,4 C 0,0 km/h
23.10.2011 06:00 3,0 C 82 % 1024,8 hPa 0,0 l/m 0,0 km/h N 0,3 C 3,0 C 0,0 km/h
23.10.2011 07:00 3,4 C 82 % 1024,8 hPa 0,0 l/m 0,0 km/h N 0,6 C 3,4 C 0,0 km/h
23.10.2011 08:00 3,8 C 82 % 1025,0 hPa 0,0 l/m 0,0 km/h N 1,0 C 3,8 C 0,4 km/h
23.10.2011 09:00 4,5 C 82 % 1025,1 hPa 0,0 l/m 0,0 km/h N 1,7 C 4,5 C 0,0 km/h
23.10.2011 10:00 5,3 C 81 % 1025,2 hPa 0,0 l/m 0,0 km/h N 2,4 C 5,3 C 0,0 km/h
23.10.2011 11:00 6,3 C 82 % 1025,2 hPa 0,0 l/m 0,1 km/h N 3,5 C 6,3 C 2,0 km/h
23.10.2011 12:00 7,3 C 84 % 1025,0 hPa 0,0 l/m 0,1 km/h N 4,7 C 7,3 C 3,2 km/h
23.10.2011 13:00 7,8 C 83 % 1024,7 hPa 0,0 l/m 0,0 km/h N 5,2 C 7,8 C 1,6 km/h
23.10.2011 14:00 7,9 C 83 % 1024,3 hPa 0,0 l/m 0,0 km/h N 5,2 C 7,9 C 1,6 km/h
23.10.2011 15:00 7,8 C 83 % 1024,0 hPa 0,0 l/m 0,0 km/h N 5,1 C 7,8 C 1,6 km/h
23.10.2011 16:00 7,4 C 83 % 1023,9 hPa 0,0 l/m 0,1 km/h N 4,7 C 7,4 C 1,6 km/h
23.10.2011 17:00 7,2 C 82 % 1023,7 hPa 0,0 l/m 0,0 km/h N 4,4 C 7,2 C 0,8 km/h
23.10.2011 18:00 7,1 C 82 % 1023,7 hPa 0,0 l/m 0,0 km/h N 4,2 C 7,1 C 0,0 km/h
23.10.2011 19:00 7,2 C 81 % 1023,7 hPa 0,0 l/m 0,0 km/h N 4,2 C 7,2 C 0,0 km/h
23.10.2011 20:00 7,1 C 81 % 1023,5 hPa 0,0 l/m 0,0 km/h N 4,1 C 7,1 C 0,0 km/h
23.10.2011 21:00 7,2 C 80 % 1023,5 hPa 0,3 l/m 0,0 km/h N 4,0 C 7,2 C 0,0 km/h
23.10.2011 22:00 7,3 C 80 % 1023,3 hPa 0,0 l/m 0,0 km/h N 4,0 C 7,3 C 0,0 km/h
23.10.2011 23:00 7,3 C 80 % 1022,9 hPa 0,0 l/m 0,0 km/h N 4,1 C 7,3 C 0,0 km/h
Min-Datum _ 17.10.11 17.10.11 19.10.11 - 17.10.11 - 17.10.11 17.10.11 17.10.11
_ Min-Zeit 05:45 16:30 16:15 - 00:00 - 05:45 05:45 00:00
Minimum _ -1,1 C 49 % 1013,0 hPa - 0,0 km/h - -3,4 C -1,1 C 0,0 km/h
Max-Datum _ 18.10.11 17.10.11 21.10.11 18.10.11 19.10.11 - 19.10.11 18.10.11 19.10.11
_ Max-Zeit 15:30 02:00 21:45 09:00 22:30 - 17:00 15:30 23:00
Maximum _ 13,4 C 84 % 1029,6 hPa 0,8 l/m 7,9 km/h
NW
- 7,6 C 13,4 C 29,0 km/h
N-NW
Durchschnitt _ 5,4 C 77 % 1023,5 hPa #2,3 l/m 0,8 km/h NW 1,6 C 5,4 C 4,0 km/h